Time;durP1;ratioP1;P1;durP2;ratioP2;P2;SDS_P1;SDS_P2;PMS_P1;PMS_P2;Temp;Humidity;BMP_temperature;BMP_pressure;BME280_temperature;BME280_humidity;BME280_pressure;Samples;Min_cycle;Max_cycle;Signal;HPM_P1;HPM_P2
2022/03/23 00:01:24;;;;;;;10.60;8.37;;;5.10;99.90;;;;;;5025920;28;20181;-80
2022/03/23 00:03:49;;;;;;;13.80;8.90;;;5.00;1.00;;;;;;5025800;28;20224;-80
2022/03/23 00:06:17;;;;;;;12.90;8.37;;;5.00;29.60;;;;;;5042518;28;20203;-80
2022/03/23 00:08:43;;;;;;;12.03;8.30;;;5.00;99.90;;;;;;5043208;28;20172;-80
2022/03/23 00:11:09;;;;;;;11.70;9.00;;;4.90;1.00;;;;;;5042833;28;20241;-80
2022/03/23 00:13:36;;;;;;;15.33;7.80;;;4.90;99.90;;;;;;5044717;28;20215;-79
2022/03/23 00:16:03;;;;;;;10.90;7.47;;;4.90;99.90;;;;;;5044182;28;20199;-79
2022/03/23 00:18:28;;;;;;;12.63;9.00;;;4.90;99.90;;;;;;5043681;28;20207;-79
2022/03/23 00:20:54;;;;;;;12.80;9.10;;;4.80;99.90;;;;;;5043949;28;20541;-79
2022/03/23 00:23:20;;;;;;;17.17;8.87;;;4.80;99.90;;;;;;5041988;28;20188;-80
2022/03/23 00:25:45;;;;;;;11.77;8.40;;;4.70;99.90;;;;;;5043081;28;20175;-79
2022/03/23 00:28:11;;;;;;;15.87;9.13;;;4.60;99.90;;;;;;5043071;28;20172;-80
2022/03/23 00:30:36;;;;;;;11.27;7.70;;;4.60;99.90;;;;;;5060051;28;20267;-80
2022/03/23 00:33:02;;;;;;;10.53;7.87;;;4.60;99.90;;;;;;5058833;28;20601;-80
2022/03/23 00:35:32;;;;;;;13.50;8.27;;;4.60;99.90;;;;;;5044709;28;20188;-80
2022/03/23 00:37:58;;;;;;;12.70;8.23;;;4.60;99.90;;;;;;5060029;28;20280;-80
2022/03/23 00:40:30;;;;;;;10.73;7.47;;;4.60;99.90;;;;;;5059187;28;20180;-80
2022/03/23 00:43:01;;;;;;;15.17;8.60;;;4.50;99.90;;;;;;5044802;28;20202;-79
2022/03/23 00:45:27;;;;;;;13.93;9.13;;;4.40;99.90;;;;;;5043120;28;20535;-79
2022/03/23 00:47:53;;;;;;;15.50;9.53;;;4.40;99.90;;;;;;5057797;28;20196;-80
2022/03/23 00:50:18;;;;;;;12.47;8.17;;;4.30;99.90;;;;;;5043115;28;20176;-80
2022/03/23 00:52:47;;;;;;;11.87;7.67;;;4.30;99.90;;;;;;5043434;28;20172;-80
2022/03/23 00:55:14;;;;;;;11.60;8.60;;;4.30;99.90;;;;;;5046148;28;20208;-80
2022/03/23 00:57:39;;;;;;;13.43;8.63;;;4.20;99.90;;;;;;5044629;28;20196;-80
2022/03/23 01:00:12;;;;;;;10.90;8.50;;;4.20;99.90;;;;;;5046201;28;20195;-79
2022/03/23 01:02:38;;;;;;;11.73;8.57;;;4.20;99.90;;;;;;5041052;28;20156;-79
2022/03/23 01:05:04;;;;;;;12.27;8.37;;;4.10;99.90;;;;;;5042709;28;20173;-79
2022/03/23 01:07:30;;;;;;;12.83;8.33;;;4.10;99.90;;;;;;5042060;28;20242;-79
2022/03/23 01:09:55;;;;;;;11.97;8.30;;;4.00;99.90;;;;;;5042445;28;20549;-80
2022/03/23 01:12:21;;;;;;;15.67;9.83;;;4.00;99.90;;;;;;5041511;28;20187;-80
2022/03/23 01:14:46;;;;;;;15.03;9.27;;;4.00;99.90;;;;;;5039664;28;20627;-79
2022/03/23 01:17:12;;;;;;;14.33;9.37;;;3.90;99.90;;;;;;5055875;28;20211;-79
2022/03/23 01:19:38;;;;;;;14.33;10.03;;;3.90;99.90;;;;;;5041434;28;20167;-79
2022/03/23 01:22:05;;;;;;;15.87;10.57;;;3.90;99.90;;;;;;5056863;28;20168;-79
2022/03/23 01:24:30;;;;;;;18.20;10.17;;;3.80;99.90;;;;;;5039336;28;20176;-79
2022/03/23 01:26:56;;;;;;;14.30;9.67;;;3.80;99.90;;;;;;5041532;28;20192;-80
2022/03/23 01:29:22;;;;;;;21.50;9.93;;;3.80;99.90;;;;;;5056142;28;20176;-80
2022/03/23 01:31:47;;;;;;;15.90;10.57;;;3.70;99.90;;;;;;5040389;28;20172;-80
2022/03/23 01:34:13;;;;;;;12.90;9.93;;;3.80;99.90;;;;;;5055094;28;20196;-79
2022/03/23 01:36:38;;;;;;;14.30;10.10;;;3.80;99.90;;;;;;5055157;28;20212;-80
2022/03/23 01:39:04;;;;;;;15.43;9.57;;;3.70;99.90;;;;;;5054657;28;20214;-79
2022/03/23 01:41:33;;;;;;;15.67;10.63;;;3.70;99.90;;;;;;5055098;28;20176;-79
2022/03/23 01:43:59;;;;;;;14.00;10.17;;;3.60;99.90;;;;;;5040936;28;20563;-79
2022/03/23 01:46:26;;;;;;;14.77;9.97;;;3.60;99.90;;;;;;5040909;28;20196;-79
2022/03/23 01:48:51;;;;;;;14.37;9.93;;;3.50;99.90;;;;;;5039236;28;20634;-80
2022/03/23 01:51:17;;;;;;;14.33;9.83;;;3.70;99.90;;;;;;5042318;28;20180;-79
2022/03/23 01:53:43;;;;;;;15.50;9.57;;;3.50;99.90;;;;;;5057631;28;20196;-79
2022/03/23 01:56:11;;;;;;;14.40;10.40;;;3.50;99.90;;;;;;5056982;28;20196;-80
2022/03/23 01:58:37;;;;;;;12.30;9.00;;;3.50;99.90;;;;;;5042537;28;20168;-79
2022/03/23 02:01:03;;;;;;;15.37;10.47;;;3.40;99.90;;;;;;5021351;28;20263;-79
2022/03/23 02:03:29;;;;;;;14.40;9.77;;;3.40;99.90;;;;;;5021943;28;20180;-80
2022/03/23 02:05:54;;;;;;;13.17;9.27;;;3.30;99.90;;;;;;5035882;28;20182;-80
2022/03/23 02:08:20;;;;;;;16.43;10.17;;;3.40;99.90;;;;;;5059361;28;20173;-79
2022/03/23 02:10:46;;;;;;;12.73;9.00;;;3.30;99.90;;;;;;5040488;28;20618;-79
2022/03/23 02:13:11;;;;;;;14.77;9.63;;;3.30;99.90;;;;;;5055946;28;20184;-79
2022/03/23 02:15:38;;;;;;;15.47;9.70;;;3.30;99.90;;;;;;5040502;28;20247;-78
2022/03/23 02:18:04;;;;;;;14.33;9.93;;;3.30;99.90;;;;;;5040778;28;20176;-79
2022/03/23 02:20:30;;;;;;;12.50;8.93;;;3.20;99.90;;;;;;5039153;28;20188;-79
2022/03/23 02:22:56;;;;;;;16.40;10.00;;;3.20;99.90;;;;;;5041121;28;20192;-79
2022/03/23 02:25:25;;;;;;;13.80;9.40;;;3.20;99.90;;;;;;5040971;28;20196;-79
2022/03/23 02:27:52;;;;;;;15.33;10.30;;;3.20;99.90;;;;;;5054129;28;20249;-79
2022/03/23 02:30:18;;;;;;;12.97;9.67;;;3.10;99.90;;;;;;5040624;28;20172;-79
2022/03/23 02:32:45;;;;;;;17.43;9.43;;;3.10;99.90;;;;;;5056067;28;20230;-79
2022/03/23 02:35:11;;;;;;;13.43;9.77;;;3.10;99.90;;;;;;5055088;28;20259;-80
2022/03/23 02:37:38;;;;;;;15.13;10.13;;;3.00;99.90;;;;;;5054981;28;20207;-79
2022/03/23 02:40:04;;;;;;;13.93;10.13;;;3.00;99.90;;;;;;5040370;28;20176;-79
2022/03/23 02:42:30;;;;;;;15.70;10.37;;;3.00;99.90;;;;;;5040842;28;20176;-79
2022/03/23 02:44:55;;;;;;;15.67;10.43;;;2.90;99.90;;;;;;5054449;28;20168;-79
2022/03/23 02:47:21;;;;;;;13.27;10.17;;;2.90;99.90;;;;;;5053946;28;20207;-79
2022/03/23 02:49:46;;;;;;;14.47;9.77;;;2.90;99.90;;;;;;5043998;28;20267;-80
2022/03/23 02:52:12;;;;;;;17.93;9.97;;;2.80;99.90;;;;;;5059366;28;20274;-79
2022/03/23 03:03:27;;;;;;;17.13;10.87;;;2.80;99.90;;;;;;5042202;28;20203;-79
2022/03/23 03:05:53;;;;;;;15.60;10.93;;;2.70;99.90;;;;;;5041089;28;20487;-78
2022/03/23 03:11:03;;;;;;;15.90;11.27;;;2.70;99.90;;;;;;5041008;28;20582;-79
2022/03/23 03:13:29;;;;;;;15.03;10.83;;;2.70;99.90;;;;;;5039334;28;20204;-79
2022/03/23 03:16:02;;;;;;;14.67;10.07;;;2.60;99.90;;;;;;5057935;28;20241;-79
2022/03/23 03:18:32;;;;;;;16.03;10.50;;;2.60;99.90;;;;;;5059568;28;20176;-79
2022/03/23 03:20:58;;;;;;;19.73;10.67;;;2.60;99.90;;;;;;5044450;28;20165;-79
2022/03/23 03:23:25;;;;;;;13.80;10.37;;;2.50;99.90;;;;;;5059453;28;20191;-79
2022/03/23 03:25:51;;;;;;;17.27;10.87;;;2.50;99.90;;;;;;5044032;28;20214;-79
2022/03/23 03:28:16;;;;;;;14.73;10.73;;;2.50;99.90;;;;;;5043997;28;20642;-79
2022/03/23 03:30:42;;;;;;;14.07;10.37;;;2.50;99.90;;;;;;5044240;28;20176;-79
2022/03/23 03:33:08;;;;;;;15.17;10.83;;;2.50;99.90;;;;;;5043551;28;20172;-79
2022/03/23 03:35:33;;;;;;;15.60;10.13;;;2.40;99.90;;;;;;5045243;28;20223;-78
2022/03/23 03:37:59;;;;;;;17.77;11.13;;;2.40;99.90;;;;;;5043805;28;20219;-79
2022/03/23 03:40:24;;;;;;;16.20;11.37;;;2.40;99.90;;;;;;5046140;28;20203;-79
2022/03/23 03:42:50;;;;;;;16.50;10.90;;;2.40;99.90;;;;;;5043028;28;20173;-79
2022/03/23 03:45:15;;;;;;;18.17;12.03;;;2.30;99.90;;;;;;5042804;28;20180;-79
2022/03/23 03:47:41;;;;;;;17.33;10.60;;;2.30;99.90;;;;;;5042298;28;20200;-78
2022/03/23 03:50:07;;;;;;;19.20;12.70;;;2.20;99.90;;;;;;5043233;28;20638;-79
2022/03/23 03:52:32;;;;;;;21.63;12.17;;;2.20;99.90;;;;;;5044126;28;20181;-79
2022/03/23 03:54:58;;;;;;;15.77;11.00;;;2.20;99.90;;;;;;5042414;28;20231;-79
2022/03/23 03:57:23;;;;;;;21.40;12.07;;;2.20;99.90;;;;;;5043222;28;20188;-79
2022/03/23 03:59:49;;;;;;;14.60;10.87;;;2.20;99.90;;;;;;5042108;28;20173;-79
2022/03/23 04:02:14;;;;;;;14.93;9.87;;;2.20;99.90;;;;;;5043096;28;20184;-79
2022/03/23 04:04:40;;;;;;;17.63;11.97;;;2.20;99.90;;;;;;5042234;28;20226;-79
2022/03/23 04:07:05;;;;;;;20.17;10.37;;;2.20;99.90;;;;;;5042483;28;20211;-79
2022/03/23 04:09:31;;;;;;;15.30;10.93;;;2.20;99.90;;;;;;5058418;28;20187;-78
2022/03/23 04:11:57;;;;;;;15.33;10.50;;;2.10;99.90;;;;;;5041801;28;20234;-79
2022/03/23 04:14:22;;;;;;;14.53;10.13;;;2.10;99.90;;;;;;5040335;28;20234;-79
2022/03/23 04:16:48;;;;;;;14.57;10.23;;;2.10;99.90;;;;;;5042665;28;20196;-79
2022/03/23 04:19:13;;;;;;;16.67;11.53;;;2.10;99.90;;;;;;5042876;28;20584;-79
2022/03/23 04:21:39;;;;;;;15.60;10.50;;;2.10;99.90;;;;;;5041666;28;20180;-79
2022/03/23 04:24:05;;;;;;;15.27;10.60;;;2.10;99.90;;;;;;5041978;28;20184;-79
2022/03/23 04:26:30;;;;;;;15.20;10.43;;;2.10;99.90;;;;;;5056876;28;20697;-79
2022/03/23 04:28:56;;;;;;;16.73;10.33;;;2.10;99.90;;;;;;5041802;28;20187;-78
2022/03/23 04:31:22;;;;;;;12.67;10.03;;;2.00;99.90;;;;;;5041603;28;20186;-79
2022/03/23 04:33:47;;;;;;;15.53;11.50;;;2.00;99.90;;;;;;5042089;28;20573;-79
2022/03/23 04:36:13;;;;;;;15.60;11.43;;;2.00;99.90;;;;;;5042426;28;20222;-79
2022/03/23 04:38:38;;;;;;;18.83;11.37;;;2.00;99.90;;;;;;5043159;28;20177;-78
2022/03/23 04:41:04;;;;;;;17.60;11.40;;;2.00;99.90;;;;;;5040002;28;20208;-79
2022/03/23 04:43:31;;;;;;;18.03;11.90;;;2.00;99.90;;;;;;5042292;28;20207;-79
2022/03/23 04:45:57;;;;;;;16.03;11.60;;;2.00;99.90;;;;;;5042208;28;20837;-78
2022/03/23 04:48:22;;;;;;;18.70;11.57;;;1.90;99.90;;;;;;5057173;28;20274;-79
2022/03/23 04:50:48;;;;;;;17.97;12.27;;;1.90;99.90;;;;;;5041701;28;20614;-79
2022/03/23 04:53:15;;;;;;;19.83;11.93;;;1.90;99.90;;;;;;5036358;28;20290;-79
2022/03/23 04:55:40;;;;;;;19.53;11.83;;;1.90;99.90;;;;;;5033005;28;20212;-79
2022/03/23 04:58:06;;;;;;;18.30;11.33;;;1.90;99.90;;;;;;5045987;28;20180;-78
2022/03/23 05:00:34;;;;;;;18.57;11.53;;;1.80;99.90;;;;;;5034838;28;20173;-79
2022/03/23 05:03:00;;;;;;;18.40;11.87;;;1.80;99.90;;;;;;5029590;28;20232;-78
2022/03/23 05:05:26;;;;;;;18.57;10.53;;;1.80;99.90;;;;;;5032288;28;20187;-79
2022/03/23 05:07:52;;;;;;;17.73;11.07;;;1.80;99.90;;;;;;5032790;28;20518;-79
2022/03/23 05:10:18;;;;;;;18.13;11.47;;;1.80;99.90;;;;;;5056362;28;20278;-79
2022/03/23 05:12:44;;;;;;;18.27;11.23;;;1.80;99.90;;;;;;5040533;28;20187;-78
2022/03/23 05:15:11;;;;;;;18.00;11.83;;;1.70;99.90;;;;;;5041130;28;20291;-79
2022/03/23 05:17:37;;;;;;;15.83;10.80;;;1.70;99.90;;;;;;5040791;28;20185;-78
2022/03/23 05:20:04;;;;;;;17.03;11.90;;;1.70;99.90;;;;;;5039772;28;20219;-78
2022/03/23 05:22:30;;;;;;;20.07;11.83;;;1.70;99.90;;;;;;5040846;28;20172;-79
2022/03/23 05:24:56;;;;;;;17.37;11.87;;;1.70;99.90;;;;;;5041538;28;20215;-79
2022/03/23 05:27:22;;;;;;;18.47;10.97;;;1.70;99.90;;;;;;5039723;28;20212;-79
2022/03/23 05:29:48;;;;;;;15.73;9.87;;;1.60;99.90;;;;;;5050214;28;20210;-78
2022/03/23 05:32:16;;;;;;;15.80;11.03;;;1.60;99.90;;;;;;5048155;28;20210;-79
2022/03/23 05:34:44;;;;;;;13.37;9.60;;;1.60;99.90;;;;;;5039497;28;20210;-79
2022/03/23 05:37:09;;;;;;;16.57;9.57;;;1.60;99.90;;;;;;5036990;28;20724;-79
2022/03/23 05:39:35;;;;;;;13.47;10.60;;;1.60;99.90;;;;;;5052556;28;20180;-80
2022/03/23 05:42:01;;;;;;;14.20;10.33;;;1.60;99.90;;;;;;5036851;28;20175;-79
2022/03/23 05:44:26;;;;;;;14.83;11.53;;;1.60;99.90;;;;;;5037461;28;20181;-79
2022/03/23 05:46:53;;;;;;;13.30;10.17;;;1.60;99.90;;;;;;5035034;28;20204;-80
2022/03/23 05:49:18;;;;;;;16.37;11.67;;;1.60;99.90;;;;;;5036304;28;20238;-81
2022/03/23 05:51:44;;;;;;;16.83;10.77;;;1.60;99.90;;;;;;5036759;28;20176;-82
2022/03/23 05:54:09;;;;;;;14.73;10.33;;;1.60;99.90;;;;;;5037111;28;20562;-81
2022/03/23 05:56:35;;;;;;;16.53;11.10;;;1.60;99.90;;;;;;5038858;28;20200;-83
2022/03/23 05:59:01;;;;;;;17.13;11.10;;;1.60;99.90;;;;;;5036662;28;20188;-82
2022/03/23 06:01:26;;;;;;;18.83;11.80;;;1.60;99.90;;;;;;5038120;28;20183;-82
2022/03/23 06:03:52;;;;;;;15.70;11.07;;;1.60;99.90;;;;;;5036427;28;20255;-82
2022/03/23 06:06:18;;;;;;;17.93;11.23;;;1.60;99.90;;;;;;5037114;28;20200;-81
2022/03/23 06:08:43;;;;;;;18.07;10.93;;;1.60;99.90;;;;;;5037202;28;20215;-82
2022/03/23 06:11:09;;;;;;;14.60;10.20;;;1.60;99.90;;;;;;5036070;28;20184;-82
2022/03/23 06:13:34;;;;;;;14.77;10.83;;;1.70;99.90;;;;;;5036646;28;20547;-82
2022/03/23 06:16:00;;;;;;;16.57;10.87;;;1.70;99.90;;;;;;5038050;28;20192;-82
2022/03/23 06:18:25;;;;;;;14.10;10.57;;;1.70;99.90;;;;;;5054763;28;20172;-82
2022/03/23 06:20:51;;;;;;;15.03;10.50;;;1.70;99.90;;;;;;5053288;28;20303;-82
2022/03/23 06:23:17;;;;;;;14.83;10.83;;;1.70;99.90;;;;;;5038227;28;20173;-82
2022/03/23 06:25:42;;;;;;;15.70;10.50;;;1.70;99.90;;;;;;5037640;28;20175;-82
2022/03/23 06:28:08;;;;;;;14.13;10.00;;;1.70;99.90;;;;;;5038042;28;20177;-82
2022/03/23 06:30:34;;;;;;;14.07;10.13;;;1.70;99.90;;;;;;5053094;28;20277;-82
2022/03/23 06:33:00;;;;;;;13.27;10.23;;;1.80;99.90;;;;;;5052561;28;20710;-82
2022/03/23 06:35:27;;;;;;;15.17;10.20;;;1.80;99.90;;;;;;5053144;28;20216;-82
2022/03/23 06:37:52;;;;;;;16.03;10.67;;;1.90;99.90;;;;;;5053767;28;20685;-82
2022/03/23 06:40:20;;;;;;;15.90;10.47;;;1.80;99.90;;;;;;5053564;28;20183;-82
2022/03/23 06:42:46;;;;;;;15.67;11.00;;;1.90;99.90;;;;;;5038048;28;20174;-82
2022/03/23 06:45:12;;;;;;;14.73;10.73;;;2.00;99.90;;;;;;5037156;28;20172;-81
2022/03/23 06:47:37;;;;;;;14.50;10.43;;;2.00;99.90;;;;;;5052864;28;20207;-82
2022/03/23 06:50:04;;;;;;;21.30;11.17;;;2.10;99.90;;;;;;5054831;28;20304;-82
2022/03/23 06:52:29;;;;;;;17.80;10.73;;;2.20;99.90;;;;;;5056652;28;20207;-82
2022/03/23 06:54:55;;;;;;;16.93;11.47;;;2.10;99.90;;;;;;5044754;28;20553;-82
2022/03/23 06:57:20;;;;;;;15.27;10.47;;;2.30;99.90;;;;;;5055111;28;20207;-81
2022/03/23 06:59:46;;;;;;;19.43;12.00;;;2.30;99.90;;;;;;5052960;28;20243;-82
2022/03/23 07:02:12;;;;;;;16.83;10.23;;;2.30;99.90;;;;;;5037901;28;20172;-82
2022/03/23 07:04:38;;;;;;;15.90;11.57;;;2.60;99.90;;;;;;5054410;28;20183;-81
2022/03/23 07:07:04;;;;;;;19.00;12.50;;;2.50;99.90;;;;;;5060927;28;20250;-81
2022/03/23 07:09:32;;;;;;;17.27;11.80;;;2.60;99.90;;;;;;5070959;28;20180;-82
2022/03/23 07:12:03;;;;;;;18.63;12.03;;;2.60;99.90;;;;;;5057554;28;20162;-82
2022/03/23 07:14:30;;;;;;;16.90;11.83;;;2.70;99.90;;;;;;5057263;28;20211;-82
2022/03/23 07:16:56;;;;;;;19.27;12.97;;;2.80;99.90;;;;;;5072706;28;20185;-81
2022/03/23 07:19:22;;;;;;;19.43;11.80;;;2.90;99.90;;;;;;5041121;28;20172;-81
2022/03/23 07:21:49;;;;;;;19.03;12.47;;;3.00;99.90;;;;;;5037616;28;20222;-81
2022/03/23 07:24:14;;;;;;;19.23;12.63;;;3.10;99.90;;;;;;5038045;28;20184;-81
2022/03/23 07:26:40;;;;;;;17.03;12.23;;;3.20;99.90;;;;;;5036977;28;20227;-81
2022/03/23 07:29:06;;;;;;;17.97;12.07;;;3.40;99.90;;;;;;5036332;28;20204;-81
2022/03/23 07:31:32;;;;;;;19.30;13.27;;;3.40;99.90;;;;;;5052053;28;20654;-81
2022/03/23 07:33:58;;;;;;;18.53;12.07;;;3.60;99.90;;;;;;5051909;28;20219;-81
2022/03/23 07:36:24;;;;;;;22.73;12.77;;;3.70;99.90;;;;;;5051162;28;20212;-81
2022/03/23 07:38:50;;;;;;;16.83;11.87;;;3.90;99.90;;;;;;5036524;28;20176;-81
2022/03/23 07:41:16;;;;;;;17.80;13.63;;;4.00;99.90;;;;;;5052520;28;20173;-81
2022/03/23 07:43:42;;;;;;;21.03;15.03;;;4.10;99.90;;;;;;5052719;28;20238;-81
2022/03/23 07:46:08;;;;;;;20.87;14.00;;;4.30;99.90;;;;;;5052033;28;20693;-81
2022/03/23 07:48:34;;;;;;;21.20;14.57;;;4.50;99.90;;;;;;5051552;28;20247;-81
2022/03/23 07:51:00;;;;;;;21.77;14.50;;;4.70;99.90;;;;;;5052771;28;20215;-81
2022/03/23 07:53:25;;;;;;;22.47;15.33;;;4.80;1.00;;;;;;5052798;28;20230;-81
2022/03/23 07:55:51;;;;;;;18.83;13.73;;;5.00;1.00;;;;;;5053161;28;20219;-81
2022/03/23 07:58:16;;;;;;;21.20;15.23;;;5.20;86.70;;;;;;5052352;28;20176;-81
2022/03/23 08:00:45;;;;;;;20.30;13.63;;;5.30;1.00;;;;;;5036631;28;20630;-81
2022/03/23 08:03:11;;;;;;;20.57;13.27;;;5.50;99.90;;;;;;5040847;28;20542;-81
2022/03/23 08:05:42;;;;;;;21.63;14.27;;;5.70;1.00;;;;;;5038944;28;20165;-81
2022/03/23 08:08:09;;;;;;;20.37;13.60;;;5.80;99.90;;;;;;5054970;28;20168;-81
2022/03/23 08:10:35;;;;;;;19.93;13.77;;;6.00;1.00;;;;;;5056136;28;20222;-82
2022/03/23 08:13:02;;;;;;;19.23;13.17;;;6.10;1.00;;;;;;5042536;28;20222;-81
2022/03/23 08:15:29;;;;;;;18.97;12.50;;;6.30;99.90;;;;;;5043265;28;20275;-82
2022/03/23 08:17:58;;;;;;;17.57;12.53;;;6.50;1.00;;;;;;5055746;28;20288;-81
2022/03/23 08:20:32;;;;;;;19.13;12.50;;;6.60;48.80;;;;;;5055283;28;20200;-81
2022/03/23 08:23:03;;;;;;;16.97;12.53;;;6.80;99.90;;;;;;5042595;28;20171;-81
2022/03/23 08:25:29;;;;;;;17.50;12.50;;;6.90;1.00;;;;;;5061708;28;20184;-82
2022/03/23 08:27:56;;;;;;;17.23;11.83;;;7.10;1.00;;;;;;5058871;28;20216;-81
2022/03/23 08:30:21;;;;;;;18.57;12.60;;;7.20;99.90;;;;;;5042152;28;20176;-82
2022/03/23 08:32:47;;;;;;;17.10;12.23;;;7.30;99.90;;;;;;5065172;28;20211;-82
2022/03/23 08:35:12;;;;;;;20.77;12.80;;;7.60;1.00;;;;;;5065917;28;20204;-81
2022/03/23 08:37:41;;;;;;;24.63;14.30;;;7.70;99.90;;;;;;5051778;28;20211;-81
2022/03/23 08:40:07;;;;;;;20.43;13.20;;;7.90;99.90;;;;;;5071543;28;20188;-80
2022/03/23 08:42:33;;;;;;;20.20;13.13;;;8.50;99.90;;;;;;5066096;28;20657;-81
2022/03/23 08:44:58;;;;;;;19.27;12.40;;;8.50;99.90;;;;;;5063209;28;20214;-81
2022/03/23 08:47:24;;;;;;;22.50;12.47;;;8.80;90.60;;;;;;5046818;28;20196;-81
2022/03/23 08:49:50;;;;;;;16.13;11.67;;;8.90;1.00;;;;;;5066213;28;20233;-81
2022/03/23 08:52:16;;;;;;;19.47;12.67;;;9.00;99.90;;;;;;5050381;28;20271;-81
2022/03/23 08:54:41;;;;;;;21.70;12.53;;;9.30;1.00;;;;;;5052955;28;20200;-81
2022/03/23 08:57:07;;;;;;;15.67;11.90;;;9.50;99.90;;;;;;5071533;28;20219;-81
2022/03/23 08:59:33;;;;;;;18.87;12.30;;;9.60;99.90;;;;;;5071343;28;20183;-81
2022/03/23 09:01:58;;;;;;;18.53;12.10;;;9.90;1.00;;;;;;5054064;28;20176;-80
2022/03/23 09:04:24;;;;;;;16.87;12.40;;;10.10;1.00;;;;;;5071423;28;20202;-81
2022/03/23 09:06:50;;;;;;;17.30;11.90;;;10.40;99.90;;;;;;5072250;28;20204;-81
2022/03/23 09:09:16;;;;;;;19.83;12.37;;;10.40;1.00;;;;;;5062362;28;20180;-81
2022/03/23 09:11:45;;;;;;;16.73;12.17;;;10.50;1.00;;;;;;5040912;28;20179;-81
2022/03/23 09:14:13;;;;;;;19.87;12.77;;;10.60;99.90;;;;;;5043642;28;20199;-81
2022/03/23 09:16:40;;;;;;;18.60;13.23;;;10.80;99.90;;;;;;5068896;28;20200;-80
2022/03/23 09:19:06;;;;;;;17.83;12.97;;;11.00;99.90;;;;;;5046510;28;20199;-82
2022/03/23 09:21:33;;;;;;;22.97;12.73;;;11.10;99.90;;;;;;5046835;28;20181;-81
2022/03/23 09:23:59;;;;;;;17.97;11.83;;;11.30;11.50;;;;;;5048569;28;20180;-81
2022/03/23 09:26:24;;;;;;;19.03;12.63;;;11.50;1.00;;;;;;5050235;28;20203;-82
2022/03/23 09:28:53;;;;;;;17.70;13.20;;;11.70;1.00;;;;;;5066408;28;20247;-82
2022/03/23 09:31:19;;;;;;;18.27;12.87;;;11.70;1.00;;;;;;5049341;28;20211;-82
2022/03/23 09:33:48;;;;;;;20.30;13.47;;;11.70;1.00;;;;;;5050261;28;20204;-82
2022/03/23 09:38:58;;;;;;;23.27;13.77;;;11.70;99.90;;;;;;5049165;28;20569;-82
2022/03/23 09:41:25;;;;;;;19.97;13.50;;;11.70;1.00;;;;;;5057266;22;20236;-77
2022/03/23 09:43:52;;;;;;;21.67;13.57;;;11.80;1.00;;;;;;5016391;28;20172;-76
2022/03/23 09:46:18;;;;;;;18.57;12.80;;;11.80;1.00;;;;;;5034059;28;20226;-76
2022/03/23 09:48:43;;;;;;;17.37;13.03;;;12.00;1.00;;;;;;5034291;28;20172;-76
2022/03/23 09:51:10;;;;;;;17.83;13.13;;;12.00;1.00;;;;;;5033889;28;20763;-76
2022/03/23 09:53:36;;;;;;;19.70;13.43;;;12.10;1.00;;;;;;5033805;28;20279;-78
2022/03/23 09:56:02;;;;;;;23.63;14.80;;;12.30;1.00;;;;;;5016129;28;20168;-76
2022/03/23 09:58:29;;;;;;;22.07;13.67;;;12.50;1.00;;;;;;5016131;28;20191;-76
2022/03/23 10:00:54;;;;;;;20.40;13.47;;;12.50;1.00;;;;;;5015956;28;20315;-76
2022/03/23 10:04:06;;;;;;;25.27;14.10;;;12.80;1.00;;;;;;5033980;28;20622;-76
2022/03/23 10:07:00;;;;;;;21.00;14.87;;;12.90;1.00;;;;;;5019157;28;20184;-76
2022/03/23 10:09:25;;;;;;;19.27;14.57;;;13.00;1.00;;;;;;5033619;28;20168;-76
2022/03/23 10:12:22;;;;;;;20.90;14.10;;;13.20;1.00;;;;;;5033477;28;20696;-77
2022/03/23 10:15:24;;;;;;;25.87;15.37;;;13.20;1.00;;;;;;5033425;28;20204;-76
2022/03/23 10:18:34;;;;;;;21.33;14.37;;;13.50;1.00;;;;;;5033466;28;20176;-76
2022/03/23 10:20:59;;;;;;;24.90;16.17;;;13.60;1.00;;;;;;5033417;28;20196;-76
2022/03/23 10:23:26;;;;;;;28.43;16.17;;;13.80;1.00;;;;;;5033224;28;20669;-75
2022/03/23 10:25:51;;;;;;;27.63;15.63;;;14.00;99.90;;;;;;5033099;28;20171;-75
2022/03/23 10:28:18;;;;;;;22.67;14.93;;;14.00;99.90;;;;;;5033305;28;20165;-76
2022/03/23 10:30:45;;;;;;;21.73;15.10;;;14.10;99.90;;;;;;5033219;28;20681;-76
2022/03/23 10:33:23;;;;;;;26.20;15.77;;;14.10;99.90;;;;;;5033555;28;20179;-75
2022/03/23 10:35:50;;;;;;;23.07;15.97;;;14.30;99.90;;;;;;5015767;28;20229;-75
2022/03/23 10:38:21;;;;;;;21.93;15.57;;;14.40;99.90;;;;;;5033163;28;20545;-76
2022/03/23 10:40:50;;;;;;;20.17;15.13;;;14.40;99.90;;;;;;5033012;28;20191;-75
2022/03/23 10:43:20;;;;;;;28.17;16.57;;;14.40;99.90;;;;;;5033350;28;20619;-76
2022/03/23 10:45:47;;;;;;;26.67;16.23;;;14.50;99.90;;;;;;5033022;28;20179;-75
2022/03/23 10:48:18;;;;;;;22.23;15.40;;;14.60;99.90;;;;;;5015282;28;20575;-76
2022/03/23 10:50:57;;;;;;;22.67;15.40;;;14.60;99.90;;;;;;5015447;28;20570;-76
2022/03/23 10:53:41;;;;;;;31.60;17.43;;;14.60;99.90;;;;;;5033298;28;20160;-76
2022/03/23 10:56:07;;;;;;;20.77;14.50;;;14.90;99.90;;;;;;5015543;28;20234;-76
2022/03/23 10:58:34;;;;;;;35.23;18.50;;;14.80;99.90;;;;;;5015246;28;20267;-75
2022/03/23 11:01:03;;;;;;;21.60;16.33;;;14.90;99.90;;;;;;5015469;28;20542;-76
2022/03/23 11:03:38;;;;;;;23.63;16.10;;;15.00;99.90;;;;;;5015174;28;20180;-76
2022/03/23 11:06:06;;;;;;;23.27;16.30;;;15.10;99.90;;;;;;5033050;28;20168;-76
2022/03/23 11:08:32;;;;;;;23.90;16.30;;;15.10;99.90;;;;;;5033132;28;20195;-76
2022/03/23 11:16:50;;;;;;;25.53;17.60;;;15.20;99.90;;;;;;5033239;28;20168;-76
2022/03/23 11:19:23;;;;;;;23.40;17.13;;;15.30;99.90;;;;;;5032959;28;20191;-76
2022/03/23 11:22:02;;;;;;;23.23;17.63;;;15.50;99.90;;;;;;5014829;28;20188;-76
2022/03/23 11:24:42;;;;;;;30.70;18.77;;;15.60;99.90;;;;;;5032585;28;20592;-77
2022/03/23 11:27:17;;;;;;;22.30;15.80;;;15.70;99.90;;;;;;5032793;28;20153;-77
2022/03/23 11:29:43;;;;;;;27.17;17.50;;;15.60;99.90;;;;;;5032482;28;20156;-77
2022/03/23 11:32:12;;;;;;;27.93;17.03;;;15.80;99.90;;;;;;5014679;28;20192;-77
2022/03/23 11:34:40;;;;;;;23.97;16.90;;;15.90;99.90;;;;;;5014683;28;20756;-76
2022/03/23 11:37:07;;;;;;;23.83;16.80;;;16.00;99.90;;;;;;5016958;28;20179;-77
2022/03/23 11:39:34;;;;;;;20.67;17.23;;;15.90;99.90;;;;;;5036234;28;20168;-76
2022/03/23 11:42:02;;;;;;;23.90;17.30;;;16.10;99.90;;;;;;5036056;28;20686;-77
2022/03/23 11:44:27;;;;;;;22.20;16.87;;;16.20;99.90;;;;;;5036390;28;20169;-76
2022/03/23 11:47:05;;;;;;;27.63;17.83;;;16.30;99.90;;;;;;5018320;28;20530;-76
2022/03/23 11:49:55;;;;;;;27.87;17.70;;;16.40;99.90;;;;;;5018322;28;20630;-78
2022/03/23 11:52:42;;;;;;;26.07;16.70;;;16.50;99.90;;;;;;5035957;28;20196;-76
2022/03/23 11:55:40;;;;;;;21.13;15.50;;;16.60;99.90;;;;;;5035841;28;20195;-77
2022/03/23 11:58:23;;;;;;;25.33;17.40;;;16.70;99.90;;;;;;5036016;28;20646;-76
2022/03/23 12:01:05;;;;;;;23.53;16.93;;;16.80;99.90;;;;;;5018043;28;20220;-77
2022/03/23 12:03:48;;;;;;;25.17;16.67;;;16.80;99.90;;;;;;5036144;28;20214;-76
2022/03/23 12:06:21;;;;;;;21.23;15.77;;;16.90;99.90;;;;;;5035942;28;20247;-77
2022/03/23 12:08:50;;;;;;;19.77;14.83;;;17.00;99.90;;;;;;5017897;28;20172;-77
2022/03/23 12:11:41;;;;;;;20.50;15.90;;;17.00;99.90;;;;;;5035619;28;20644;-77
2022/03/23 12:14:25;;;;;;;26.50;15.87;;;17.00;99.90;;;;;;5035645;28;20196;-76
2022/03/23 12:16:51;;;;;;;21.77;16.30;;;17.00;99.90;;;;;;5035678;28;20164;-76
2022/03/23 12:19:28;;;;;;;23.87;15.13;;;17.20;99.90;;;;;;5035562;28;20168;-76
2022/03/23 12:22:05;;;;;;;21.43;15.57;;;17.30;99.90;;;;;;5035378;28;20226;-76
2022/03/23 12:24:58;;;;;;;20.53;15.23;;;17.20;99.90;;;;;;5017725;28;20180;-76
2022/03/23 12:27:46;;;;;;;18.80;13.93;;;17.20;99.90;;;;;;5035702;28;20223;-77
2022/03/23 12:30:33;;;;;;;21.33;15.07;;;17.10;99.90;;;;;;5017658;28;20168;-77
2022/03/23 12:33:06;;;;;;;21.33;14.50;;;17.20;99.90;;;;;;5017555;28;20169;-77
2022/03/23 12:35:33;;;;;;;17.50;13.63;;;17.20;99.90;;;;;;5035375;28;20188;-77
2022/03/23 12:38:00;;;;;;;20.70;15.20;;;17.20;99.90;;;;;;5017462;28;20546;-77
2022/03/23 12:40:39;;;;;;;22.60;15.90;;;17.40;99.90;;;;;;5035148;28;20717;-78
2022/03/23 12:43:05;;;;;;;20.00;15.43;;;17.40;99.90;;;;;;5035317;28;20187;-77
2022/03/23 12:45:39;;;;;;;21.50;16.27;;;17.40;99.90;;;;;;5035315;28;20172;-77
2022/03/23 12:48:07;;;;;;;19.50;15.50;;;17.40;99.90;;;;;;5016899;28;20279;-77
2022/03/23 12:59:16;;;;;;;20.73;15.80;;;17.50;99.90;;;;;;5035134;28;20526;-76
2022/03/23 13:01:42;;;;;;;27.03;15.53;;;17.60;99.90;;;;;;5034667;28;20184;-77
2022/03/23 13:04:08;;;;;;;20.33;15.97;;;17.70;99.90;;;;;;5035056;28;20255;-77
2022/03/23 13:06:36;;;;;;;20.73;15.40;;;17.70;99.90;;;;;;5016802;28;20195;-77
2022/03/23 13:09:08;;;;;;;21.93;15.70;;;17.70;99.90;;;;;;5016806;28;20172;-77
2022/03/23 13:11:35;;;;;;;20.43;15.57;;;17.80;99.90;;;;;;5016696;28;20192;-77